createdAt,value
2023-01-12T00:25:57.193Z,100364.75
2023-01-12T00:28:24.337Z,100354.73
2023-01-12T00:30:51.504Z,100355.23
2023-01-12T00:33:20.389Z,100353.11
2023-01-12T00:35:47.834Z,100353.71
2023-01-12T00:38:14.883Z,100350.08
2023-01-12T00:40:41.938Z,100344.87
2023-01-12T00:43:27.826Z,100345.77
2023-01-12T00:45:55.053Z,100351.38
2023-01-12T00:48:23.253Z,100349.95
2023-01-12T00:50:50.405Z,100349.91
2023-01-12T00:53:17.455Z,100349.88
2023-01-12T00:55:46.350Z,100351.96
2023-01-12T00:58:13.495Z,100350.86
2023-01-12T01:00:40.647Z,100352.32
2023-01-12T01:03:07.803Z,100347.49
2023-01-12T01:05:34.955Z,100351.96
2023-01-12T01:08:04.045Z,100355.54
2023-01-12T01:10:31.198Z,100356.08
2023-01-12T01:12:58.349Z,100362.16
2023-01-12T01:15:25.403Z,100361.52
2023-01-12T01:17:52.550Z,100371.85
2023-01-12T01:20:19.706Z,100366.70
2023-01-12T01:22:46.753Z,100361.69
2023-01-12T01:25:13.905Z,100361.17
2023-01-12T01:27:41.057Z,100361.77
2023-01-12T01:30:09.234Z,100368.92
2023-01-12T01:32:36.340Z,100367.13
2023-01-12T01:35:03.457Z,100366.73
2023-01-12T01:37:31.203Z,100367.92
2023-01-12T01:39:58.350Z,100365.15
2023-01-12T01:42:28.521Z,100372.73
2023-01-12T01:44:57.575Z,100369.95
2023-01-12T01:47:50.224Z,100371.38
2023-01-12T01:50:24.641Z,100376.77
2023-01-12T01:53:06.234Z,100372.95
2023-01-12T01:55:36.761Z,100366.42
2023-01-12T01:58:09.445Z,100374.05
2023-01-12T02:00:37.925Z,100372.84
2023-01-12T02:03:05.315Z,100375.48
2023-01-12T02:05:32.534Z,100377.39
2023-01-12T06:48:12.242Z,100259.30
2023-01-12T06:50:39.395Z,100259.05
2023-01-12T06:53:07.359Z,100261.25
2023-01-12T06:55:35.025Z,100255.75
2023-01-12T06:58:03.994Z,100263.39
2023-01-12T07:00:31.687Z,100267.25
2023-01-12T07:02:59.043Z,100276.02
2023-01-12T07:05:26.192Z,100276.09
2023-01-12T07:07:58.962Z,100275.14
2023-01-12T07:10:26.685Z,100277.48
2023-01-12T07:12:54.102Z,100284.92
2023-01-12T07:15:21.244Z,100282.05
2023-01-12T07:17:48.406Z,100281.28
2023-01-12T07:20:16.153Z,100280.23
2023-01-12T07:22:43.519Z,100279.38
2023-01-12T07:25:10.666Z,100271.91
2023-01-12T07:27:37.816Z,100275.25
2023-01-12T07:30:05.579Z,100274.42
2023-01-12T07:32:32.937Z,100272.38
2023-01-12T07:35:00.089Z,100270.30
2023-01-12T07:37:27.243Z,100267.23
2023-01-12T07:39:54.393Z,100269.75
2023-01-12T07:42:24.329Z,100263.46
2023-01-12T07:44:52.385Z,100258.22
2023-01-12T07:47:19.563Z,100259.95
2023-01-12T07:49:46.996Z,100263.15
2023-01-12T07:52:14.650Z,100252.49
2023-01-12T07:54:41.804Z,100250.77
2023-01-12T07:57:12.644Z,100247.04
2023-01-12T07:59:39.804Z,100248.09
2023-01-12T08:02:07.294Z,100248.84
2023-01-12T08:04:34.505Z,100253.16
2023-01-12T08:07:01.759Z,100259.39
2023-01-12T08:09:28.908Z,100262.94
2023-01-12T08:11:56.060Z,100259.64
2023-01-12T08:14:33.647Z,100266.14
2023-01-12T08:17:02.151Z,100257.53
2023-01-12T08:19:39.436Z,100253.61
2023-01-12T08:22:10.370Z,100250.76
2023-01-12T08:24:46.326Z,100250.35
2023-01-12T08:27:13.476Z,100252.98
2023-01-12T08:29:45.706Z,100256.91
2023-01-12T08:32:13.558Z,100251.48
2023-01-12T08:34:41.742Z,100251.74
2023-01-12T08:37:10.074Z,100250.51
2023-01-12T08:39:37.338Z,100245.86
2023-01-12T08:42:04.681Z,100244.77
2023-01-12T08:44:34.704Z,100242.27
2023-01-12T08:47:02.159Z,100244.80
2023-01-12T08:49:29.945Z,100244.17
2023-01-12T08:51:57.283Z,100242.36
2023-01-12T08:54:24.871Z,100246.86
2023-01-12T08:56:54.376Z,100243.66
2023-01-12T08:59:21.623Z,100244.89
2023-01-12T09:01:49.169Z,100249.80
2023-01-12T09:04:16.427Z,100251.59
2023-01-12T09:06:44.793Z,100248.10
2023-01-12T09:09:13.791Z,100242.58
2023-01-12T09:11:41.901Z,100239.13
2023-01-12T09:14:09.551Z,100239.29
2023-01-12T09:16:36.847Z,100238.46
2023-01-12T09:19:04.155Z,100230.44
2023-01-12T09:21:31.823Z,100246.30
2023-01-12T09:23:59.073Z,100242.41
2023-01-12T09:26:31.831Z,100238.30
2023-01-12T09:28:59.922Z,100241.70
2023-01-12T09:31:27.657Z,100242.15
2023-01-12T09:33:54.956Z,100237.30
2023-01-12T09:36:24.363Z,100236.47
2023-01-12T09:38:51.506Z,100233.72
2023-01-12T09:42:05.465Z,100232.76
2023-01-12T09:44:52.795Z,100234.17
2023-01-12T09:47:44.933Z,100240.86
2023-01-12T09:50:18.125Z,100235.85
2023-01-12T09:52:57.463Z,100236.52
2023-01-12T09:55:26.774Z,100231.98
2023-01-12T09:58:19.007Z,100229.75
2023-01-12T10:00:51.523Z,100222.79
2023-01-12T10:03:31.989Z,100218.06
2023-01-12T16:14:22.992Z,100164.13
2023-01-12T16:16:50.257Z,100160.84
2023-01-12T16:19:21.505Z,100158.45
2023-01-12T16:21:48.638Z,100155.23
2023-01-12T16:24:15.798Z,100159.58
2023-01-12T16:26:43.968Z,100154.69
2023-01-12T16:29:11.226Z,100151.07
2023-01-12T16:31:39.420Z,100149.99
2023-01-12T16:34:06.858Z,100147.84
2023-01-12T16:36:35.025Z,100144.48
2023-01-12T16:39:02.176Z,100137.91
2023-01-12T16:41:29.431Z,100133.08
2023-01-12T16:43:58.426Z,100118.00
2023-01-12T16:46:25.572Z,100128.44
2023-01-12T16:48:55.488Z,100134.09
2023-01-12T16:51:22.748Z,100129.66
2023-01-12T16:53:51.842Z,100131.17
2023-01-12T16:56:18.991Z,100127.77
2023-01-12T16:58:48.905Z,100126.13
2023-01-12T17:01:18.325Z,100120.67
2023-01-12T17:03:45.774Z,100121.66
2023-01-12T17:06:16.922Z,100130.03
2023-01-12T17:08:44.174Z,100126.55
2023-01-12T17:11:12.921Z,100124.23
2023-01-12T17:13:40.218Z,100125.16
2023-01-12T17:16:10.766Z,100127.73
2023-01-12T17:18:38.924Z,100128.30
2023-01-12T17:21:12.255Z,100127.38
2023-01-12T17:23:40.581Z,100126.79
2023-01-12T17:26:09.602Z,100131.59
2023-01-12T17:28:36.861Z,100134.80
2023-01-12T17:31:12.579Z,100128.95
2023-01-12T17:33:39.853Z,100127.45
2023-01-12T17:36:08.638Z,100119.52
2023-01-12T17:38:36.518Z,100117.75
2023-01-12T17:41:08.586Z,100112.36
2023-01-12T17:43:37.464Z,100108.60
2023-01-12T17:46:07.922Z,100109.86
2023-01-12T17:48:35.064Z,100110.70
2023-01-12T17:51:06.392Z,100115.02
2023-01-12T17:53:33.543Z,100116.27
2023-01-12T17:56:04.014Z,100111.06
2023-01-12T17:58:31.123Z,100111.60
2023-01-12T23:02:26.288Z,100096.80
2023-01-12T23:04:53.540Z,100091.65
2023-01-12T23:07:20.793Z,100088.05
2023-01-12T23:09:47.944Z,100093.13
2023-01-12T23:12:15.093Z,100092.08
2023-01-12T23:14:42.249Z,100088.01
2023-01-12T23:17:09.396Z,100083.28
2023-01-12T23:19:36.566Z,100079.15
2023-01-12T23:22:03.903Z,100072.48
2023-01-12T23:24:31.052Z,100074.58
2023-01-12T23:26:58.308Z,100073.29
2023-01-12T23:29:25.457Z,100075.42
2023-01-12T23:31:52.616Z,100076.91
2023-01-12T23:34:19.867Z,100077.03
2023-01-12T23:36:47.013Z,100083.83
2023-01-12T23:39:14.170Z,100085.71
2023-01-12T23:41:41.322Z,100078.56
2023-01-12T23:44:09.796Z,100083.29
2023-01-12T23:46:38.251Z,100078.27
2023-01-12T23:49:05.644Z,100085.39
2023-01-12T23:51:33.002Z,100084.17
2023-01-12T23:54:00.842Z,100090.15
2023-01-12T23:56:29.304Z,100095.19
2023-01-12T23:58:56.600Z,100097.31
